首页
METAR-TAF:

METAR-TAF

机场 :

卡尔加里国际机场

卡尔加里, 艾伯塔, 加拿大

纬度: 51-07N, 经度: 114-01W, 海拔: 1077米

当前天气观测

该预报发布于33分钟前的10:00 UTC
风速2节,风向
温度 -14°C
湿度 72%
气压 1022 hPa
能見度: 24.1公里
散云层高于2900英尺
多云层高于10000英尺

METAR: CYYC 021000Z 01002KT 15SM SCT029 BKN100 M14/M18 A3018 RMK SC3AC3 DIST SH SE SLP305

时间: 04:33 (10:33 UTC)

预报

该预报发布于1小时和55分钟前的08:38 UTC
预报有效从02日的 09点(UTC)到 03日的 06点(UTC)
风速3节,风向西
能見度: 10公里
散云层高于3000英尺
散云层高于8000英尺
短暂存在
从 02日的 09点(UTC)到 02日的 17点(UTC)
能見度: 9.7公里
多云层高于3000英尺
多云层高于8000英尺
小雪
成为
从 02日的 12点(UTC)到 02日的 14点(UTC)
风速4节,风向东转东南
从 02日的 1800点(UTC)
风速8节,风向东南
能見度: 10公里
散云层高于3000英尺
散云层高于7000英尺
短暂存在
从 02日的 19点(UTC)到 02日的 24点(UTC)
能見度: 10公里
多云层高于3000英尺
多云层高于7000英尺
小阵雪
从 03日的 0200点(UTC)
风速10节,风向南转南东
能見度: 10公里
散云层高于4000英尺

TAF: CYYC 020838Z 0209/0306 28003KT P6SM SCT030 SCT080 TEMPO 0209/0217 6SM -SN BKN030 BKN080 BECMG 0212/0214 11004KT FM021800 13008KT P6SM SCT030 SCT070 TEMPO 0219/0224 P6SM -SHSN BKN030 BKN070 FM030200 15010KT P6SM SCT040 RMK NXT FCST BY 021200Z

超过4000个机场的气象观测和天气预报(METAR&TAF报告)。

可查询的气象台以黄色和红色小点在地图上表示。

将鼠标移到小点上方,可查看气象台名称。

然后点击查看天气观测和预报。

如需切换地图:点击带黑十字的绿色按钮放大地图;点击带横线的绿色按钮缩小地图;或者点击绿色箭头查看邻近地区的地图。


METAR-TAF: